sensor_id;sensor_type;location;lat;lon;timestamp;pressure;altitude;pressure_sealevel;temperature;humidity
77153;BME280;66124;51.146;17.072;2022-12-16T11:21:49;99659.42;;;2.77;73.23
77153;BME280;66124;51.146;17.072;2022-12-16T11:24:19;99659.41;;;2.09;73.05
77153;BME280;66124;51.146;17.072;2022-12-16T11:26:55;99669.96;;;1.54;73.26
77153;BME280;66124;51.146;17.072;2022-12-16T11:29:24;99673.98;;;1.07;73.67
77153;BME280;66124;51.146;17.072;2022-12-16T11:31:57;99671.02;;;0.71;73.86
77153;BME280;66124;51.146;17.072;2022-12-16T11:40:34;99653.58;;;-0.19;74.77
77153;BME280;66124;51.146;17.072;2022-12-16T11:43:05;99643.48;;;-0.41;74.98
77153;BME280;66124;51.146;17.072;2022-12-16T11:45:35;99633.46;;;-0.56;75.43
77153;BME280;66124;51.146;17.072;2022-12-16T11:48:10;99642.89;;;-0.69;75.65
77153;BME280;66124;51.146;17.072;2022-12-16T11:50:48;99641.13;;;-0.82;75.91
77153;BME280;66124;51.146;17.072;2022-12-16T11:53:29;99623.40;;;-0.91;76.27
77153;BME280;66124;51.146;17.072;2022-12-16T11:56:00;99618.70;;;-0.99;76.59
77153;BME280;66124;51.146;17.072;2022-12-16T11:58:32;99610.54;;;-1.07;76.53
77153;BME280;66124;51.146;17.072;2022-12-16T12:01:11;99613.86;;;-1.14;76.56
77153;BME280;66124;51.146;17.072;2022-12-16T12:03:45;99626.17;;;-1.19;76.90
77153;BME280;66124;51.146;17.072;2022-12-16T12:06:24;99633.88;;;-1.27;77.03
77153;BME280;66124;51.146;17.072;2022-12-16T12:09:00;99640.03;;;-1.36;77.17
77153;BME280;66124;51.146;17.072;2022-12-16T12:11:35;99650.20;;;-1.42;77.40
77153;BME280;66124;51.146;17.072;2022-12-16T12:14:14;99665.27;;;-1.50;77.50
77153;BME280;66124;51.146;17.072;2022-12-16T12:16:56;99671.29;;;-1.59;77.81
77153;BME280;66124;51.146;17.072;2022-12-16T12:19:36;99671.55;;;-1.64;77.78
77153;BME280;66124;51.146;17.072;2022-12-16T12:22:11;99663.67;;;-1.69;78.34
77153;BME280;66124;51.146;17.072;2022-12-16T12:24:51;99663.67;;;-1.74;78.23
77153;BME280;66124;51.146;17.072;2022-12-16T12:27:28;99670.49;;;-1.75;78.46
77153;BME280;66124;51.146;17.072;2022-12-16T12:30:02;99675.04;;;-1.74;78.66
77153;BME280;66124;51.146;17.072;2022-12-16T12:32:38;99675.52;;;-1.76;78.68
77153;BME280;66124;51.146;17.072;2022-12-16T12:35:23;99687.52;;;-1.75;78.77
77153;BME280;66124;51.146;17.072;2022-12-16T12:38:00;99693.95;;;-1.73;78.98
77153;BME280;66124;51.146;17.072;2022-12-16T12:40:43;99691.46;;;-1.77;79.09
77153;BME280;66124;51.146;17.072;2022-12-16T12:43:25;99687.33;;;-1.81;79.12
77153;BME280;66124;51.146;17.072;2022-12-16T12:46:03;99691.39;;;-1.83;79.31
77153;BME280;66124;51.146;17.072;2022-12-16T12:48:41;99687.13;;;-1.86;79.32
77153;BME280;66124;51.146;17.072;2022-12-16T12:51:25;99684.31;;;-1.87;79.42
77153;BME280;66124;51.146;17.072;2022-12-16T12:56:51;99681.94;;;-1.87;79.49
77153;BME280;66124;51.146;17.072;2022-12-16T12:59:26;99677.02;;;-1.91;79.50
77153;BME280;66124;51.146;17.072;2022-12-16T13:01:59;99669.58;;;-1.92;79.68
77153;BME280;66124;51.146;17.072;2022-12-16T13:04:30;99673.66;;;-1.94;79.75
77153;BME280;66124;51.146;17.072;2022-12-16T13:07:01;99684.98;;;-1.94;79.90
77153;BME280;66124;51.146;17.072;2022-12-16T13:09:33;99692.26;;;-1.92;80.00
77153;BME280;66124;51.146;17.072;2022-12-16T13:12:24;99688.59;;;-1.91;79.98
77153;BME280;66124;51.146;17.072;2022-12-16T13:14:57;99694.59;;;-1.91;80.18
77153;BME280;66124;51.146;17.072;2022-12-16T13:20:38;99707.70;;;-1.86;80.38
77153;BME280;66124;51.146;17.072;2022-12-16T13:23:29;99714.64;;;-1.85;80.39
77153;BME280;66124;51.146;17.072;2022-12-16T13:26:04;99714.00;;;-1.83;80.51
77153;BME280;66124;51.146;17.072;2022-12-16T13:28:35;99717.68;;;-1.82;80.47
77153;BME280;66124;51.146;17.072;2022-12-16T13:31:05;99722.77;;;-1.83;80.42
77153;BME280;66124;51.146;17.072;2022-12-16T13:33:36;99721.52;;;-1.89;80.50
77153;BME280;66124;51.146;17.072;2022-12-16T13:36:08;99714.97;;;-1.87;80.45
77153;BME280;66124;51.146;17.072;2022-12-16T13:38:45;99717.84;;;-1.84;80.55
77153;BME280;66124;51.146;17.072;2022-12-16T13:41:49;99718.23;;;-1.82;80.72
77153;BME280;66124;51.146;17.072;2022-12-16T13:47:35;99738.36;;;-1.77;80.66
77153;BME280;66124;51.146;17.072;2022-12-16T13:50:37;99738.45;;;-1.76;80.64
77153;BME280;66124;51.146;17.072;2022-12-16T13:53:08;99743.64;;;-1.79;80.70
77153;BME280;66124;51.146;17.072;2022-12-16T13:55:43;99748.20;;;-1.82;80.67
77153;BME280;66124;51.146;17.072;2022-12-16T13:58:28;99754.42;;;-1.85;80.79
77153;BME280;66124;51.146;17.072;2022-12-16T14:01:04;99757.59;;;-1.88;80.84
77153;BME280;66124;51.146;17.072;2022-12-16T14:03:43;99771.10;;;-1.91;80.86
77153;BME280;66124;51.146;17.072;2022-12-16T14:06:14;99769.33;;;-1.95;80.80
77153;BME280;66124;51.146;17.072;2022-12-16T14:08:43;99766.28;;;-1.96;80.97
77153;BME280;66124;51.146;17.072;2022-12-16T14:12:49;99751.17;;;-1.94;80.96
77153;BME280;66124;51.146;17.072;2022-12-16T14:15:26;99750.51;;;-1.94;81.14
77153;BME280;66124;51.146;17.072;2022-12-16T14:18:02;99758.89;;;-1.92;81.11
77153;BME280;66124;51.146;17.072;2022-12-16T14:20:38;99764.89;;;-1.91;81.05
77153;BME280;66124;51.146;17.072;2022-12-16T14:23:23;99777.91;;;-1.93;81.12
77153;BME280;66124;51.146;17.072;2022-12-16T14:25:58;99783.00;;;-1.92;81.13
77153;BME280;66124;51.146;17.072;2022-12-16T14:28:29;99786.02;;;-1.93;81.35
77153;BME280;66124;51.146;17.072;2022-12-16T14:31:10;99791.85;;;-1.95;81.24
77153;BME280;66124;51.146;17.072;2022-12-16T14:33:42;99802.40;;;-1.98;81.25
77153;BME280;66124;51.146;17.072;2022-12-16T14:36:23;99808.78;;;-2.00;81.36
77153;BME280;66124;51.146;17.072;2022-12-16T14:38:52;99816.34;;;-2.05;81.23
77153;BME280;66124;51.146;17.072;2022-12-16T14:41:23;99821.02;;;-2.07;81.30
77153;BME280;66124;51.146;17.072;2022-12-16T14:43:53;99825.36;;;-2.08;81.23
77153;BME280;66124;51.146;17.072;2022-12-16T14:46:28;99825.39;;;-2.06;81.30
77153;BME280;66124;51.146;17.072;2022-12-16T14:48:58;99834.24;;;-2.04;81.18
77153;BME280;66124;51.146;17.072;2022-12-16T14:51:29;99835.95;;;-2.02;81.29
77153;BME280;66124;51.146;17.072;2022-12-16T14:54:19;99835.35;;;-1.98;81.32
77153;BME280;66124;51.146;17.072;2022-12-16T14:56:49;99839.08;;;-1.97;81.35
77153;BME280;66124;51.146;17.072;2022-12-16T14:59:20;99834.84;;;-1.98;81.31
77153;BME280;66124;51.146;17.072;2022-12-16T15:01:52;99838.05;;;-2.00;81.30
77153;BME280;66124;51.146;17.072;2022-12-16T15:04:22;99848.08;;;-2.03;81.34
77153;BME280;66124;51.146;17.072;2022-12-16T15:06:53;99856.25;;;-2.04;81.49
77153;BME280;66124;51.146;17.072;2022-12-16T15:09:27;99856.79;;;-2.07;81.40
77153;BME280;66124;51.146;17.072;2022-12-16T15:11:57;99859.71;;;-2.09;81.49
77153;BME280;66124;51.146;17.072;2022-12-16T15:14:29;99862.63;;;-2.09;81.48
77153;BME280;66124;51.146;17.072;2022-12-16T15:17:00;99860.27;;;-2.07;81.45
77153;BME280;66124;51.146;17.072;2022-12-16T15:19:40;99864.39;;;-2.05;81.38
77153;BME280;66124;51.146;17.072;2022-12-16T15:22:14;99866.74;;;-2.01;81.37
77153;BME280;66124;51.146;17.072;2022-12-16T15:24:42;99875.69;;;-1.99;81.33
77153;BME280;66124;51.146;17.072;2022-12-16T15:35:30;99879.90;;;-1.93;81.17
77153;BME280;66124;51.146;17.072;2022-12-16T15:38:00;99886.86;;;-1.94;81.08
77153;BME280;66124;51.146;17.072;2022-12-16T15:40:31;99893.79;;;-1.94;81.03
77153;BME280;66124;51.146;17.072;2022-12-16T15:43:01;99898.52;;;-1.96;81.07
77153;BME280;66124;51.146;17.072;2022-12-16T15:45:31;99902.52;;;-1.96;80.97
77153;BME280;66124;51.146;17.072;2022-12-16T15:48:06;99907.83;;;-1.98;80.98
77153;BME280;66124;51.146;17.072;2022-12-16T15:50:40;99912.27;;;-1.98;80.99
77153;BME280;66124;51.146;17.072;2022-12-16T15:53:24;99918.14;;;-1.98;81.06
77153;BME280;66124;51.146;17.072;2022-12-16T15:55:56;99918.16;;;-1.98;80.97
77153;BME280;66124;51.146;17.072;2022-12-16T15:58:28;99922.48;;;-1.98;80.98
77153;BME280;66124;51.146;17.072;2022-12-16T16:01:00;99920.08;;;-1.96;81.02
77153;BME280;66124;51.146;17.072;2022-12-16T16:03:30;99923.07;;;-1.92;80.91
77153;BME280;66124;51.146;17.072;2022-12-16T16:06:01;99925.36;;;-1.88;80.87
77153;BME280;66124;51.146;17.072;2022-12-16T16:08:31;99929.95;;;-1.85;80.89
77153;BME280;66124;51.146;17.072;2022-12-16T16:11:00;99939.42;;;-1.82;80.84
77153;BME280;66124;51.146;17.072;2022-12-16T16:13:30;99940.89;;;-1.81;80.90
77153;BME280;66124;51.146;17.072;2022-12-16T16:15:59;99947.13;;;-1.81;80.62
77153;BME280;66124;51.146;17.072;2022-12-16T16:18:29;99953.41;;;-1.80;80.67
77153;BME280;66124;51.146;17.072;2022-12-16T16:20:58;99953.62;;;-1.81;80.80
77153;BME280;66124;51.146;17.072;2022-12-16T16:23:27;99956.34;;;-1.83;80.66
77153;BME280;66124;51.146;17.072;2022-12-16T16:25:57;99953.08;;;-1.83;80.63
77153;BME280;66124;51.146;17.072;2022-12-16T16:28:27;99950.68;;;-1.85;80.71
77153;BME280;66124;51.146;17.072;2022-12-16T16:30:56;99948.20;;;-1.87;80.73
77153;BME280;66124;51.146;17.072;2022-12-16T16:33:25;99954.23;;;-1.87;80.71
77153;BME280;66124;51.146;17.072;2022-12-16T16:35:55;99958.95;;;-1.85;80.70
77153;BME280;66124;51.146;17.072;2022-12-16T16:38:24;99966.02;;;-1.83;80.83
77153;BME280;66124;51.146;17.072;2022-12-16T16:40:53;99969.88;;;-1.82;80.65
77153;BME280;66124;51.146;17.072;2022-12-16T16:43:23;99974.80;;;-1.78;80.67
77153;BME280;66124;51.146;17.072;2022-12-16T16:45:52;99981.42;;;-1.77;80.62
77153;BME280;66124;51.146;17.072;2022-12-16T16:48:21;99988.05;;;-1.76;80.79
77153;BME280;66124;51.146;17.072;2022-12-16T16:55:20;99993.71;;;-1.76;80.66
77153;BME280;66124;51.146;17.072;2022-12-16T16:57:50;99997.23;;;-1.81;80.84
77153;BME280;66124;51.146;17.072;2022-12-16T17:00:19;100002.68;;;-1.85;80.65
77153;BME280;66124;51.146;17.072;2022-12-16T17:02:49;100005.86;;;-1.89;80.93
77153;BME280;66124;51.146;17.072;2022-12-16T17:05:18;100010.35;;;-1.91;80.95
77153;BME280;66124;51.146;17.072;2022-12-16T17:07:47;100009.27;;;-1.93;80.89
77153;BME280;66124;51.146;17.072;2022-12-16T17:10:17;100013.14;;;-1.92;81.02
77153;BME280;66124;51.146;17.072;2022-12-16T17:12:46;100013.07;;;-1.91;80.80
77153;BME280;66124;51.146;17.072;2022-12-16T17:15:19;100017.41;;;-1.89;80.92
77153;BME280;66124;51.146;17.072;2022-12-16T17:17:48;100014.23;;;-1.88;80.81
77153;BME280;66124;51.146;17.072;2022-12-16T17:20:18;100015.31;;;-1.84;80.84
77153;BME280;66124;51.146;17.072;2022-12-16T17:22:47;100007.67;;;-1.80;80.98
77153;BME280;66124;51.146;17.072;2022-12-16T17:25:17;100009.52;;;-1.80;80.76
77153;BME280;66124;51.146;17.072;2022-12-16T17:27:47;100014.70;;;-1.80;80.98
77153;BME280;66124;51.146;17.072;2022-12-16T17:30:19;100020.17;;;-1.79;81.31
77153;BME280;66124;51.146;17.072;2022-12-16T17:32:47;100022.82;;;-1.78;80.95
77153;BME280;66124;51.146;17.072;2022-12-16T17:35:16;100023.61;;;-1.79;81.17
77153;BME280;66124;51.146;17.072;2022-12-16T17:37:46;100032.25;;;-1.80;81.19
77153;BME280;66124;51.146;17.072;2022-12-16T17:40:15;100038.14;;;-1.82;81.09
77153;BME280;66124;51.146;17.072;2022-12-16T17:42:44;100041.84;;;-1.86;81.09
77153;BME280;66124;51.146;17.072;2022-12-16T17:45:14;100047.21;;;-1.89;81.30
77153;BME280;66124;51.146;17.072;2022-12-16T17:47:43;100054.71;;;-1.93;81.32
77153;BME280;66124;51.146;17.072;2022-12-16T17:50:12;100048.81;;;-1.97;81.25
77153;BME280;66124;51.146;17.072;2022-12-16T17:52:42;100048.20;;;-1.98;81.62
77153;BME280;66124;51.146;17.072;2022-12-16T17:55:12;100051.63;;;-2.01;81.64
77153;BME280;66124;51.146;17.072;2022-12-16T17:57:41;100052.38;;;-2.01;81.64
77153;BME280;66124;51.146;17.072;2022-12-16T18:00:11;100049.73;;;-2.00;81.78
77153;BME280;66124;51.146;17.072;2022-12-16T18:02:41;100046.26;;;-1.97;81.74
77153;BME280;66124;51.146;17.072;2022-12-16T18:05:09;100045.70;;;-1.94;82.08
77153;BME280;66124;51.146;17.072;2022-12-16T18:07:37;100043.86;;;-1.93;81.85
77153;BME280;66124;51.146;17.072;2022-12-16T18:15:26;100048.44;;;-1.94;82.08
77153;BME280;66124;51.146;17.072;2022-12-16T18:17:55;100050.66;;;-1.99;82.05
77153;BME280;66124;51.146;17.072;2022-12-16T18:20:24;100050.84;;;-2.01;82.02
77153;BME280;66124;51.146;17.072;2022-12-16T18:22:54;100051.56;;;-2.05;81.88
77153;BME280;66124;51.146;17.072;2022-12-16T18:25:23;100056.80;;;-2.08;81.92
77153;BME280;66124;51.146;17.072;2022-12-16T18:27:52;100061.98;;;-2.11;81.98
77153;BME280;66124;51.146;17.072;2022-12-16T18:30:22;100068.37;;;-2.14;81.95
77153;BME280;66124;51.146;17.072;2022-12-16T18:32:52;100076.30;;;-2.14;82.14
77153;BME280;66124;51.146;17.072;2022-12-16T18:35:21;100081.58;;;-2.10;82.14
77153;BME280;66124;51.146;17.072;2022-12-16T18:37:50;100072.70;;;-2.09;82.14
77153;BME280;66124;51.146;17.072;2022-12-16T18:40:20;100077.73;;;-2.07;82.28
77153;BME280;66124;51.146;17.072;2022-12-16T18:42:49;100075.91;;;-2.05;82.01
77153;BME280;66124;51.146;17.072;2022-12-16T18:45:18;100076.37;;;-2.04;82.12
77153;BME280;66124;51.146;17.072;2022-12-16T18:47:48;100080.61;;;-2.06;82.20
77153;BME280;66124;51.146;17.072;2022-12-16T18:50:17;100085.26;;;-2.06;82.10
77153;BME280;66124;51.146;17.072;2022-12-16T18:52:46;100088.08;;;-2.07;82.08
77153;BME280;66124;51.146;17.072;2022-12-16T18:55:16;100090.91;;;-2.08;82.04
77153;BME280;66124;51.146;17.072;2022-12-16T18:57:45;100088.47;;;-2.13;82.11
77153;BME280;66124;51.146;17.072;2022-12-16T19:00:15;100089.73;;;-2.19;81.95
77153;BME280;66124;51.146;17.072;2022-12-16T19:02:44;100086.24;;;-2.24;82.11
77153;BME280;66124;51.146;17.072;2022-12-16T19:05:14;100084.41;;;-2.27;82.01
77153;BME280;66124;51.146;17.072;2022-12-16T19:07:44;100089.95;;;-2.32;82.17
77153;BME280;66124;51.146;17.072;2022-12-16T19:10:13;100093.83;;;-2.36;82.06
77153;BME280;66124;51.146;17.072;2022-12-16T19:12:42;100095.42;;;-2.40;81.97
77153;BME280;66124;51.146;17.072;2022-12-16T19:15:12;100098.42;;;-2.41;81.99
77153;BME280;66124;51.146;17.072;2022-12-16T19:17:41;100101.51;;;-2.41;81.91
77153;BME280;66124;51.146;17.072;2022-12-16T19:20:11;100106.75;;;-2.39;81.99
77153;BME280;66124;51.146;17.072;2022-12-16T19:22:40;100109.39;;;-2.38;82.10
77153;BME280;66124;51.146;17.072;2022-12-16T19:25:08;100106.49;;;-2.36;82.04
77153;BME280;66124;51.146;17.072;2022-12-16T19:27:36;100120.91;;;-2.35;82.09
77153;BME280;66124;51.146;17.072;2022-12-16T19:35:49;100138.34;;;-2.33;81.84
77153;BME280;66124;51.146;17.072;2022-12-16T19:38:18;100138.52;;;-2.36;82.01
77153;BME280;66124;51.146;17.072;2022-12-16T19:40:52;100141.64;;;-2.36;82.10
77153;BME280;66124;51.146;17.072;2022-12-16T19:43:22;100151.66;;;-2.36;82.24
77153;BME280;66124;51.146;17.072;2022-12-16T19:45:56;100152.21;;;-2.39;82.15
77153;BME280;66124;51.146;17.072;2022-12-16T19:48:25;100154.90;;;-2.44;81.96
77153;BME280;66124;51.146;17.072;2022-12-16T19:50:58;100158.27;;;-2.48;81.95
77153;BME280;66124;51.146;17.072;2022-12-16T19:53:28;100163.40;;;-2.50;81.91
77153;BME280;66124;51.146;17.072;2022-12-16T19:55:59;100164.02;;;-2.52;81.96
77153;BME280;66124;51.146;17.072;2022-12-16T19:58:29;100169.56;;;-2.49;81.77
77153;BME280;66124;51.146;17.072;2022-12-16T20:00:58;100173.44;;;-2.48;81.93
77153;BME280;66124;51.146;17.072;2022-12-16T20:03:28;100171.49;;;-2.48;81.94
77153;BME280;66124;51.146;17.072;2022-12-16T20:06:01;100177.98;;;-2.47;81.87
77153;BME280;66124;51.146;17.072;2022-12-16T20:08:31;100179.14;;;-2.46;82.10
77153;BME280;66124;51.146;17.072;2022-12-16T20:11:06;100184.14;;;-2.46;82.05
77153;BME280;66124;51.146;17.072;2022-12-16T20:13:35;100187.36;;;-2.48;82.06
77153;BME280;66124;51.146;17.072;2022-12-16T20:16:06;100190.20;;;-2.49;81.95
77153;BME280;66124;51.146;17.072;2022-12-16T20:18:36;100191.67;;;-2.51;82.08
77153;BME280;66124;51.146;17.072;2022-12-16T20:21:05;100191.56;;;-2.52;82.00
77153;BME280;66124;51.146;17.072;2022-12-16T20:23:35;100189.13;;;-2.54;82.14
77153;BME280;66124;51.146;17.072;2022-12-16T20:26:04;100191.98;;;-2.56;82.10
77153;BME280;66124;51.146;17.072;2022-12-16T20:28:34;100197.98;;;-2.58;82.44
77153;BME280;66124;51.146;17.072;2022-12-16T20:31:04;100203.70;;;-2.59;82.33
77153;BME280;66124;51.146;17.072;2022-12-16T20:33:33;100207.86;;;-2.56;82.23
77153;BME280;66124;51.146;17.072;2022-12-16T20:36:05;100204.02;;;-2.55;82.19
77153;BME280;66124;51.146;17.072;2022-12-16T20:38:35;100208.77;;;-2.55;82.17
77153;BME280;66124;51.146;17.072;2022-12-16T20:41:05;100209.64;;;-2.52;82.13
77153;BME280;66124;51.146;17.072;2022-12-16T20:43:34;100214.05;;;-2.48;81.99
77153;BME280;66124;51.146;17.072;2022-12-16T20:46:02;100216.52;;;-2.44;82.08
77153;BME280;66124;51.146;17.072;2022-12-16T20:48:30;100215.55;;;-2.42;82.02
77153;BME280;66124;51.146;17.072;2022-12-16T20:55:24;100217.84;;;-2.43;81.99
77153;BME280;66124;51.146;17.072;2022-12-16T20:57:54;100227.86;;;-2.49;82.01
77153;BME280;66124;51.146;17.072;2022-12-16T21:00:23;100236.02;;;-2.53;82.06
77153;BME280;66124;51.146;17.072;2022-12-16T21:02:52;100238.67;;;-2.57;81.89
77153;BME280;66124;51.146;17.072;2022-12-16T21:05:21;100240.55;;;-2.62;82.10
77153;BME280;66124;51.146;17.072;2022-12-16T21:07:51;100246.66;;;-2.68;82.07
77153;BME280;66124;51.146;17.072;2022-12-16T21:10:20;100249.40;;;-2.73;82.19
77153;BME280;66124;51.146;17.072;2022-12-16T21:12:50;100251.02;;;-2.78;82.04
77153;BME280;66124;51.146;17.072;2022-12-16T21:15:19;100250.75;;;-2.82;82.10
77153;BME280;66124;51.146;17.072;2022-12-16T21:17:48;100254.20;;;-2.82;81.94
77153;BME280;66124;51.146;17.072;2022-12-16T21:20:18;100252.29;;;-2.84;82.03
77153;BME280;66124;51.146;17.072;2022-12-16T21:22:47;100256.05;;;-2.87;82.29
77153;BME280;66124;51.146;17.072;2022-12-16T21:25:16;100260.60;;;-2.91;82.16
77153;BME280;66124;51.146;17.072;2022-12-16T21:27:46;100265.28;;;-2.94;82.16
77153;BME280;66124;51.146;17.072;2022-12-16T21:30:15;100266.92;;;-2.96;82.21
77153;BME280;66124;51.146;17.072;2022-12-16T21:32:44;100265.73;;;-2.99;82.23
77153;BME280;66124;51.146;17.072;2022-12-16T21:35:14;100268.73;;;-3.03;82.31
77153;BME280;66124;51.146;17.072;2022-12-16T21:37:43;100262.33;;;-3.11;82.32
77153;BME280;66124;51.146;17.072;2022-12-16T21:40:12;100271.02;;;-3.12;82.28
77153;BME280;66124;51.146;17.072;2022-12-16T21:42:42;100264.52;;;-3.15;82.25
77153;BME280;66124;51.146;17.072;2022-12-16T21:45:13;100269.39;;;-3.13;82.41
77153;BME280;66124;51.146;17.072;2022-12-16T21:47:42;100273.59;;;-3.12;82.34
77153;BME280;66124;51.146;17.072;2022-12-16T21:50:11;100282.50;;;-3.11;82.43
77153;BME280;66124;51.146;17.072;2022-12-16T21:52:42;100286.09;;;-3.11;82.26
77153;BME280;66124;51.146;17.072;2022-12-16T21:55:11;100289.00;;;-3.14;82.19
77153;BME280;66124;51.146;17.072;2022-12-16T21:57:42;100301.32;;;-3.13;82.49
77153;BME280;66124;51.146;17.072;2022-12-16T22:00:14;100302.91;;;-3.13;82.15
77153;BME280;66124;51.146;17.072;2022-12-16T22:02:43;100306.48;;;-3.15;82.10
77153;BME280;66124;51.146;17.072;2022-12-16T22:05:11;100311.19;;;-3.17;82.15
77153;BME280;66124;51.146;17.072;2022-12-16T22:07:39;100310.91;;;-3.18;82.10
77153;BME280;66124;51.146;17.072;2022-12-16T22:15:13;100325.30;;;-3.20;82.16
77153;BME280;66124;51.146;17.072;2022-12-16T22:17:43;100325.13;;;-3.25;82.30
77153;BME280;66124;51.146;17.072;2022-12-16T22:20:12;100326.71;;;-3.29;82.33
77153;BME280;66124;51.146;17.072;2022-12-16T22:22:41;100326.08;;;-3.30;82.32
77153;BME280;66124;51.146;17.072;2022-12-16T22:25:11;100326.08;;;-3.33;82.26
77153;BME280;66124;51.146;17.072;2022-12-16T22:27:40;100324.73;;;-3.34;82.16
77153;BME280;66124;51.146;17.072;2022-12-16T22:30:11;100325.66;;;-3.35;82.10
77153;BME280;66124;51.146;17.072;2022-12-16T22:32:40;100328.27;;;-3.35;82.17
77153;BME280;66124;51.146;17.072;2022-12-16T22:35:10;100327.27;;;-3.33;82.22
77153;BME280;66124;51.146;17.072;2022-12-16T22:37:39;100326.41;;;-3.33;82.03
77153;BME280;66124;51.146;17.072;2022-12-16T22:40:10;100330.80;;;-3.34;82.06
77153;BME280;66124;51.146;17.072;2022-12-16T22:42:39;100334.41;;;-3.37;82.14
77153;BME280;66124;51.146;17.072;2022-12-16T22:45:09;100338.21;;;-3.41;82.03
77153;BME280;66124;51.146;17.072;2022-12-16T22:47:38;100336.33;;;-3.47;82.01
77153;BME280;66124;51.146;17.072;2022-12-16T22:50:08;100347.20;;;-3.47;82.14
77153;BME280;66124;51.146;17.072;2022-12-16T22:52:38;100352.48;;;-3.52;82.03
77153;BME280;66124;51.146;17.072;2022-12-16T22:55:08;100353.75;;;-3.54;82.01
77153;BME280;66124;51.146;17.072;2022-12-16T22:57:37;100358.44;;;-3.55;81.89
77153;BME280;66124;51.146;17.072;2022-12-16T23:00:09;100356.40;;;-3.56;82.02
77153;BME280;66124;51.146;17.072;2022-12-16T23:02:39;100355.14;;;-3.54;81.92
77153;BME280;66124;51.146;17.072;2022-12-16T23:05:08;100360.77;;;-3.50;81.96
77153;BME280;66124;51.146;17.072;2022-12-16T23:07:38;100359.02;;;-3.50;81.91
77153;BME280;66124;51.146;17.072;2022-12-16T23:10:08;100353.31;;;-3.49;81.93
77153;BME280;66124;51.146;17.072;2022-12-16T23:12:38;100359.72;;;-3.50;81.83
77153;BME280;66124;51.146;17.072;2022-12-16T23:15:11;100356.14;;;-3.54;81.79
77153;BME280;66124;51.146;17.072;2022-12-16T23:17:40;100353.73;;;-3.60;81.68
77153;BME280;66124;51.146;17.072;2022-12-16T23:20:11;100356.60;;;-3.68;81.72
77153;BME280;66124;51.146;17.072;2022-12-16T23:22:40;100363.15;;;-3.68;81.74
77153;BME280;66124;51.146;17.072;2022-12-16T23:25:10;100363.98;;;-3.71;81.87
77153;BME280;66124;51.146;17.072;2022-12-16T23:27:37;100367.13;;;-3.71;81.73
77153;BME280;66124;51.146;17.072;2022-12-16T23:35:24;100377.50;;;-3.64;81.97
77153;BME280;66124;51.146;17.072;2022-12-16T23:38:00;100382.64;;;-3.64;81.70
77153;BME280;66124;51.146;17.072;2022-12-16T23:40:29;100383.59;;;-3.62;81.49
77153;BME280;66124;51.146;17.072;2022-12-16T23:42:58;100389.42;;;-3.59;81.59
77153;BME280;66124;51.146;17.072;2022-12-16T23:45:28;100390.95;;;-3.56;81.63
77153;BME280;66124;51.146;17.072;2022-12-16T23:48:02;100389.87;;;-3.51;81.54
77153;BME280;66124;51.146;17.072;2022-12-16T23:50:32;100387.55;;;-3.49;81.70
77153;BME280;66124;51.146;17.072;2022-12-16T23:53:07;100390.87;;;-3.50;81.71
77153;BME280;66124;51.146;17.072;2022-12-16T23:55:37;100388.46;;;-3.54;81.62
77153;BME280;66124;51.146;17.072;2022-12-16T23:58:07;100396.50;;;-3.53;81.65
